Time;durP1;ratioP1;P1;durP2;ratioP2;P2;SDS_P1;SDS_P2;PMS_P1;PMS_P2;Temp;Humidity;BMP_temperature;BMP_pressure;BME280_temperature;BME280_humidity;BME280_pressure;Samples;Min_cycle;Max_cycle;Signal;HPM_P1;HPM_P2
2023/09/05 00:00:12;;;;;;;9.20;5.23;;;15.10;99.90;;;;;;5026092;28;20210;-85
2023/09/05 00:02:38;;;;;;;9.17;6.43;;;15.00;99.90;;;;;;5041010;28;20223;-85
2023/09/05 00:05:07;;;;;;;7.33;5.37;;;14.90;99.90;;;;;;5009364;28;20317;-86
2023/09/05 00:07:35;;;;;;;9.33;6.20;;;14.90;99.90;;;;;;5025607;28;20225;-86
2023/09/05 00:10:10;;;;;;;10.60;6.67;;;14.80;99.90;;;;;;5026474;28;20242;-86
2023/09/05 00:12:41;;;;;;;8.60;5.83;;;14.70;99.90;;;;;;5026594;28;20236;-86
2023/09/05 00:15:11;;;;;;;7.53;4.90;;;14.60;99.90;;;;;;5025643;28;20223;-86
2023/09/05 00:17:38;;;;;;;8.27;5.03;;;14.50;99.90;;;;;;5025973;28;20214;-86
2023/09/05 00:20:05;;;;;;;5.80;4.80;;;14.50;99.90;;;;;;5027075;28;20211;-86
2023/09/05 00:22:31;;;;;;;14.23;5.43;;;14.40;99.90;;;;;;5010363;28;20292;-86
2023/09/05 00:24:57;;;;;;;10.40;6.13;;;14.40;99.90;;;;;;5009282;28;20620;-86
2023/09/05 00:27:22;;;;;;;8.77;6.50;;;14.30;99.90;;;;;;5025964;28;20311;-86
2023/09/05 00:29:48;;;;;;;8.30;5.50;;;14.30;99.90;;;;;;5009500;28;20344;-86
2023/09/05 00:32:14;;;;;;;9.23;5.13;;;14.30;99.90;;;;;;5008642;28;20217;-86
2023/09/05 00:34:40;;;;;;;7.10;5.27;;;14.20;99.90;;;;;;5025126;28;20256;-85
2023/09/05 00:37:08;;;;;;;9.00;5.47;;;14.30;99.90;;;;;;5010454;28;20194;-86
2023/09/05 00:39:35;;;;;;;8.90;5.77;;;14.30;99.90;;;;;;5025642;28;21350;-85
2023/09/05 00:42:05;;;;;;;9.90;6.20;;;14.30;99.90;;;;;;5025487;28;20354;-86
2023/09/05 00:44:32;;;;;;;13.50;6.70;;;14.30;99.90;;;;;;5024719;28;20218;-85
2023/09/05 00:46:59;;;;;;;8.60;5.87;;;14.20;99.90;;;;;;5025809;28;20707;-85
2023/09/05 00:49:28;;;;;;;8.47;5.97;;;14.20;99.90;;;;;;5026772;28;20643;-86
2023/09/05 00:52:00;;;;;;;9.00;5.90;;;14.20;99.90;;;;;;5008776;28;20702;-86
2023/09/05 00:54:26;;;;;;;10.40;5.43;;;14.10;99.90;;;;;;5041859;28;20219;-86
2023/09/05 00:56:53;;;;;;;10.03;5.57;;;14.20;99.90;;;;;;5043123;28;20218;-86
2023/09/05 00:59:19;;;;;;;8.23;5.87;;;14.10;99.90;;;;;;5029860;28;20658;-86
2023/09/05 01:01:45;;;;;;;8.23;5.80;;;14.00;99.90;;;;;;5030158;28;20185;-86
2023/09/05 01:04:13;;;;;;;12.87;6.70;;;13.90;99.90;;;;;;5014042;28;20204;-87
2023/09/05 01:06:57;;;;;;;10.43;6.93;;;13.90;99.90;;;;;;5013574;28;21094;-87
2023/09/05 01:09:44;;;;;;;14.80;6.83;;;13.90;99.90;;;;;;5029600;28;20214;-86
2023/09/05 01:12:11;;;;;;;7.40;5.53;;;14.00;99.90;;;;;;5045806;28;20737;-87
2023/09/05 01:14:36;;;;;;;9.63;6.17;;;14.00;99.90;;;;;;5013479;28;20702;-87
2023/09/05 01:17:05;;;;;;;11.00;6.83;;;14.00;99.90;;;;;;5029960;28;20297;-86
2023/09/05 01:19:35;;;;;;;9.50;6.07;;;13.90;99.90;;;;;;4997257;28;20183;-86
2023/09/05 01:22:39;;;;;;;11.27;6.60;;;13.90;99.90;;;;;;5029442;28;20215;-85
2023/09/05 01:25:08;;;;;;;8.97;5.53;;;13.80;99.90;;;;;;5045334;28;20240;-85
2023/09/05 01:27:33;;;;;;;12.70;7.33;;;13.80;99.90;;;;;;5028309;28;20797;-86
2023/09/05 01:30:00;;;;;;;8.33;5.43;;;13.70;99.90;;;;;;5012803;28;20305;-86
2023/09/05 01:32:26;;;;;;;11.27;6.40;;;13.70;99.90;;;;;;5012951;28;20210;-86
2023/09/05 01:34:52;;;;;;;12.93;6.13;;;13.70;99.90;;;;;;4996034;28;20758;-86
2023/09/05 01:37:18;;;;;;;8.30;5.60;;;13.70;99.90;;;;;;5012744;28;20999;-86
2023/09/05 01:39:44;;;;;;;8.10;5.73;;;13.70;99.90;;;;;;5028646;28;20254;-85
2023/09/05 01:42:10;;;;;;;9.77;5.47;;;13.60;99.90;;;;;;5028254;28;20234;-86
2023/09/05 01:44:38;;;;;;;10.30;6.57;;;13.50;99.90;;;;;;5012120;28;20284;-85
2023/09/05 01:47:05;;;;;;;13.03;6.27;;;13.50;99.90;;;;;;5012597;28;20771;-86
2023/09/05 01:49:30;;;;;;;10.17;6.67;;;13.60;99.90;;;;;;5029297;28;20245;-86
2023/09/05 01:51:56;;;;;;;10.20;6.43;;;13.70;99.90;;;;;;5028821;28;20249;-86
2023/09/05 01:54:24;;;;;;;10.10;6.50;;;13.70;99.90;;;;;;5012195;28;20265;-87
2023/09/05 01:56:50;;;;;;;14.50;5.43;;;13.70;99.90;;;;;;5026839;28;20258;-86
2023/09/05 01:59:19;;;;;;;10.37;6.53;;;13.70;99.90;;;;;;4995597;28;20245;-85
2023/09/05 02:01:45;;;;;;;8.90;6.67;;;13.70;99.90;;;;;;4996403;28;20187;-86
2023/09/05 02:04:11;;;;;;;8.50;5.30;;;13.70;99.90;;;;;;4995097;28;20198;-86
2023/09/05 02:06:37;;;;;;;11.00;6.20;;;13.60;99.90;;;;;;5028367;28;20215;-86
2023/09/05 02:09:03;;;;;;;9.73;6.63;;;13.40;99.90;;;;;;5010124;28;20215;-86
2023/09/05 02:11:28;;;;;;;9.40;6.00;;;13.40;99.90;;;;;;5010749;28;20371;-86
2023/09/05 02:13:54;;;;;;;8.67;5.97;;;13.40;99.90;;;;;;4995381;28;20218;-86
2023/09/05 02:16:20;;;;;;;8.90;5.50;;;13.30;99.90;;;;;;4996130;28;20974;-86
2023/09/05 02:18:47;;;;;;;10.60;5.73;;;13.20;99.90;;;;;;5028387;28;20214;-86
2023/09/05 02:21:13;;;;;;;8.17;5.63;;;13.10;99.90;;;;;;5027920;28;20206;-86
2023/09/05 02:23:39;;;;;;;8.17;5.43;;;13.00;99.90;;;;;;5027122;28;20237;-86
2023/09/05 02:26:05;;;;;;;8.10;6.37;;;13.00;99.90;;;;;;4995397;28;20214;-87
2023/09/05 02:28:31;;;;;;;7.60;5.87;;;13.00;99.90;;;;;;5011438;28;20802;-86
2023/09/05 02:30:57;;;;;;;9.67;6.60;;;13.00;99.90;;;;;;5011644;28;20242;-86
2023/09/05 02:33:23;;;;;;;10.30;6.97;;;13.00;99.90;;;;;;5027575;28;20671;-87
2023/09/05 02:35:49;;;;;;;7.77;5.70;;;13.00;99.90;;;;;;5010428;28;20717;-86
2023/09/05 02:38:15;;;;;;;8.20;6.00;;;12.90;99.90;;;;;;5027058;28;20213;-86
2023/09/05 02:40:48;;;;;;;8.03;5.93;;;12.90;99.90;;;;;;5010760;28;20266;-86
2023/09/05 02:43:14;;;;;;;6.33;4.87;;;12.90;99.90;;;;;;5043836;28;20504;-86
2023/09/05 02:45:40;;;;;;;7.47;5.30;;;12.80;99.90;;;;;;5026971;28;20221;-85
2023/09/05 02:48:09;;;;;;;7.93;5.73;;;12.80;99.90;;;;;;5026963;28;20226;-85
2023/09/05 02:50:35;;;;;;;8.20;5.67;;;12.80;99.90;;;;;;5007880;28;20219;-86
2023/09/05 02:53:00;;;;;;;7.77;6.13;;;12.80;99.90;;;;;;5010634;28;20213;-87
2023/09/05 02:55:26;;;;;;;8.27;5.90;;;12.80;99.90;;;;;;5011171;28;20186;-85
2023/09/05 02:57:52;;;;;;;11.60;6.50;;;12.90;99.90;;;;;;5010771;28;20219;-86
2023/09/05 03:00:20;;;;;;;11.67;6.23;;;12.90;99.90;;;;;;5009853;28;20215;-85
2023/09/05 03:02:49;;;;;;;11.27;6.30;;;12.90;99.90;;;;;;4994120;28;20206;-86
2023/09/05 03:05:15;;;;;;;6.53;5.17;;;12.90;99.90;;;;;;5026275;28;20214;-86
2023/09/05 03:07:41;;;;;;;13.43;5.87;;;12.80;99.90;;;;;;5010344;28;20564;-85
2023/09/05 03:10:07;;;;;;;9.80;5.33;;;12.70;99.90;;;;;;4993666;28;20230;-85
2023/09/05 03:12:33;;;;;;;8.60;5.70;;;12.70;99.90;;;;;;5009979;28;20222;-86
2023/09/05 03:14:59;;;;;;;8.03;5.30;;;12.70;99.90;;;;;;5035248;28;20218;-86
2023/09/05 03:17:24;;;;;;;6.90;5.03;;;12.70;99.90;;;;;;5010466;28;20225;-86
2023/09/05 03:19:51;;;;;;;8.60;5.70;;;12.70;99.90;;;;;;5009029;28;20187;-84
2023/09/05 03:22:16;;;;;;;10.03;6.50;;;12.60;99.90;;;;;;5009948;28;20634;-85
2023/09/05 03:24:42;;;;;;;11.70;6.60;;;12.60;99.90;;;;;;4993220;28;20234;-85
2023/09/05 03:27:08;;;;;;;7.23;5.00;;;12.50;99.90;;;;;;4992666;28;20227;-85
2023/09/05 03:29:33;;;;;;;8.70;5.70;;;12.50;99.90;;;;;;5009776;28;20221;-85
2023/09/05 03:31:59;;;;;;;10.70;6.37;;;12.40;99.90;;;;;;4992474;28;20214;-85
2023/09/05 03:34:25;;;;;;;11.10;6.17;;;12.40;99.90;;;;;;4993997;28;20189;-86
2023/09/05 03:36:51;;;;;;;7.73;6.00;;;12.40;99.90;;;;;;5009128;28;20234;-85
2023/09/05 03:39:17;;;;;;;7.60;6.23;;;12.40;99.90;;;;;;4993400;28;20224;-84
2023/09/05 03:41:42;;;;;;;7.87;4.57;;;12.40;99.90;;;;;;4993067;28;20632;-85
2023/09/05 03:44:08;;;;;;;6.43;4.87;;;12.40;99.90;;;;;;5009976;28;20238;-86
2023/09/05 03:46:34;;;;;;;8.43;5.77;;;12.40;99.90;;;;;;5009694;28;20190;-86
2023/09/05 03:49:00;;;;;;;7.83;5.87;;;12.30;99.90;;;;;;5010088;28;20603;-86
2023/09/05 03:51:28;;;;;;;7.80;5.93;;;12.40;99.90;;;;;;5026529;28;20577;-86
2023/09/05 03:53:54;;;;;;;7.67;5.73;;;12.50;99.90;;;;;;5025547;28;20288;-85
2023/09/05 03:56:21;;;;;;;7.50;5.83;;;12.60;99.90;;;;;;5009466;28;20693;-87
2023/09/05 03:58:47;;;;;;;8.57;5.50;;;12.60;99.90;;;;;;5009478;28;20249;-87
2023/09/05 04:01:14;;;;;;;7.77;6.23;;;12.60;99.90;;;;;;5009828;28;20240;-85
2023/09/05 04:03:40;;;;;;;12.70;7.03;;;12.50;99.90;;;;;;5025708;28;20711;-85
2023/09/05 04:06:06;;;;;;;7.73;5.97;;;12.40;99.90;;;;;;5027053;28;20215;-85
2023/09/05 04:08:32;;;;;;;8.67;5.47;;;12.20;99.90;;;;;;4993025;28;20246;-85
2023/09/05 04:10:59;;;;;;;7.20;5.63;;;12.00;99.90;;;;;;5025038;28;20238;-85
2023/09/05 04:13:26;;;;;;;10.10;5.33;;;12.00;99.90;;;;;;5026694;28;20240;-85
2023/09/05 04:15:52;;;;;;;8.50;5.87;;;12.10;99.90;;;;;;5008974;28;20302;-85
2023/09/05 04:18:18;;;;;;;8.63;5.83;;;12.00;99.90;;;;;;4993054;28;20309;-86
2023/09/05 04:20:44;;;;;;;7.60;5.17;;;12.10;99.90;;;;;;5025975;28;20225;-85
2023/09/05 04:23:10;;;;;;;7.67;6.27;;;12.00;99.90;;;;;;5009153;28;20222;-85
2023/09/05 04:25:39;;;;;;;6.40;4.33;;;12.00;99.90;;;;;;5009163;28;20191;-85
2023/09/05 04:28:06;;;;;;;8.63;5.97;;;12.20;99.90;;;;;;4994305;28;20211;-85
2023/09/05 04:30:36;;;;;;;12.17;7.63;;;12.30;99.90;;;;;;5024726;28;20250;-85
2023/09/05 04:33:06;;;;;;;8.63;6.80;;;12.30;99.90;;;;;;5024649;28;20292;-85
2023/09/05 04:35:32;;;;;;;10.30;6.60;;;12.20;99.90;;;;;;5009719;28;20238;-84
2023/09/05 04:37:58;;;;;;;9.33;6.80;;;12.20;99.90;;;;;;5025381;28;20238;-84
2023/09/05 04:40:24;;;;;;;11.03;7.87;;;12.30;99.90;;;;;;5009330;28;20670;-85
2023/09/05 04:42:50;;;;;;;9.80;7.00;;;12.40;99.90;;;;;;5008207;28;20233;-85
2023/09/05 04:45:15;;;;;;;8.13;5.40;;;12.50;99.90;;;;;;5008289;28;20313;-85
2023/09/05 04:47:41;;;;;;;10.70;7.30;;;12.60;99.90;;;;;;5008653;28;20227;-84
2023/09/05 04:50:08;;;;;;;8.63;6.77;;;12.70;99.90;;;;;;5008308;28;20280;-85
2023/09/05 04:52:35;;;;;;;11.43;8.13;;;12.60;99.90;;;;;;4992922;28;20256;-84
2023/09/05 04:55:01;;;;;;;14.47;6.50;;;12.50;99.90;;;;;;5009299;28;20190;-85
2023/09/05 04:57:28;;;;;;;15.43;7.40;;;12.60;99.90;;;;;;5005963;28;20284;-84
2023/09/05 04:59:57;;;;;;;10.73;7.33;;;12.80;99.90;;;;;;5040646;28;20679;-87
2023/09/05 05:02:24;;;;;;;12.63;7.13;;;12.90;99.90;;;;;;5024641;28;20213;-86
2023/09/05 05:04:50;;;;;;;12.43;6.50;;;13.00;99.90;;;;;;5025375;28;20874;-85
2023/09/05 05:07:16;;;;;;;14.03;8.37;;;13.00;99.90;;;;;;5009151;28;20203;-84
2023/09/05 05:09:43;;;;;;;9.53;5.97;;;12.90;99.90;;;;;;5007636;28;20231;-84
2023/09/05 05:12:09;;;;;;;11.60;7.43;;;12.90;99.90;;;;;;5023824;28;20246;-85
2023/09/05 05:14:35;;;;;;;9.80;6.97;;;12.90;99.90;;;;;;5041292;28;20254;-85
2023/09/05 05:17:02;;;;;;;13.27;8.73;;;13.50;99.90;;;;;;5008636;28;20699;-84
2023/09/05 05:19:27;;;;;;;14.73;9.60;;;14.10;99.90;;;;;;5008909;28;20289;-85
2023/09/05 05:21:53;;;;;;;17.83;10.33;;;14.50;99.90;;;;;;5024774;28;20310;-85
2023/09/05 05:24:19;;;;;;;11.90;8.33;;;14.80;99.90;;;;;;5007748;28;20233;-84
2023/09/05 05:26:45;;;;;;;14.67;9.33;;;14.80;99.90;;;;;;5025019;28;20583;-85
2023/09/05 05:29:11;;;;;;;13.80;8.10;;;14.70;99.90;;;;;;5008182;28;20247;-85
2023/09/05 05:31:39;;;;;;;10.80;7.47;;;14.40;99.90;;;;;;5023823;28;20187;-85
2023/09/05 05:34:05;;;;;;;11.23;6.97;;;14.20;99.90;;;;;;4992359;28;20269;-86
2023/09/05 05:36:31;;;;;;;11.37;6.30;;;14.10;99.90;;;;;;5008055;28;20223;-85
2023/09/05 05:39:01;;;;;;;10.73;6.10;;;14.00;99.90;;;;;;5024234;28;20214;-89
2023/09/05 05:41:27;;;;;;;10.20;6.20;;;14.00;99.90;;;;;;5007523;28;20217;-84
2023/09/05 05:43:55;;;;;;;10.47;6.27;;;14.30;99.90;;;;;;5002705;28;20220;-84
2023/09/05 05:46:21;;;;;;;7.27;5.27;;;14.40;99.90;;;;;;5012182;28;20236;-83
2023/09/05 05:48:47;;;;;;;11.67;6.93;;;14.30;99.90;;;;;;5010786;28;20313;-84
2023/09/05 05:51:16;;;;;;;8.03;6.20;;;14.20;99.90;;;;;;5019508;28;20210;-84
2023/09/05 05:53:42;;;;;;;6.80;5.40;;;14.20;99.90;;;;;;5011056;28;20221;-84
2023/09/05 05:56:12;;;;;;;9.43;6.37;;;14.30;99.90;;;;;;5010834;28;20765;-85
2023/09/05 05:58:39;;;;;;;14.63;8.07;;;14.60;99.90;;;;;;5010916;28;20256;-84
2023/09/05 06:01:07;;;;;;;20.87;9.53;;;15.80;99.90;;;;;;5029610;28;20189;-84
2023/09/05 06:03:36;;;;;;;16.77;10.17;;;17.70;99.90;;;;;;5010982;28;20222;-85
2023/09/05 06:06:03;;;;;;;16.67;8.27;;;18.60;99.90;;;;;;5009115;28;20226;-84
2023/09/05 06:08:29;;;;;;;13.80;8.07;;;19.20;99.90;;;;;;5026924;28;20241;-85
2023/09/05 06:10:56;;;;;;;9.77;6.83;;;20.40;99.90;;;;;;5026502;28;20237;-84
2023/09/05 06:13:22;;;;;;;8.47;6.43;;;21.70;99.90;;;;;;5027188;28;20186;-84
2023/09/05 06:15:48;;;;;;;8.43;5.40;;;22.30;99.90;;;;;;4994009;28;20226;-83
2023/09/05 06:18:14;;;;;;;9.67;6.07;;;23.70;99.90;;;;;;5009565;28;20581;-84
2023/09/05 06:20:39;;;;;;;8.13;5.97;;;24.10;99.90;;;;;;5004552;28;20721;-85
2023/09/05 06:23:05;;;;;;;6.13;5.40;;;23.90;99.90;;;;;;5009006;28;20782;-85
2023/09/05 06:25:31;;;;;;;5.93;4.77;;;22.30;99.90;;;;;;5011067;28;20191;-83
2023/09/05 06:27:58;;;;;;;12.23;5.13;;;20.50;99.90;;;;;;5026520;28;20710;-87
2023/09/05 06:30:24;;;;;;;7.10;4.83;;;19.00;99.90;;;;;;4993430;28;20828;-84
2023/09/05 06:32:50;;;;;;;7.50;5.23;;;18.20;99.90;;;;;;5025882;28;20293;-83
2023/09/05 06:35:16;;;;;;;7.97;4.80;;;17.60;99.90;;;;;;5008820;28;20214;-83
2023/09/05 06:37:42;;;;;;;7.30;5.90;;;17.40;99.90;;;;;;5025791;28;20186;-84
2023/09/05 06:40:12;;;;;;;7.30;5.50;;;17.50;99.90;;;;;;5009321;28;20191;-84
2023/09/05 06:42:42;;;;;;;7.37;5.73;;;17.40;99.90;;;;;;5025953;28;20213;-85
2023/09/05 06:45:09;;;;;;;7.17;5.23;;;17.40;99.90;;;;;;5008996;28;20211;-84
2023/09/05 06:47:35;;;;;;;5.83;4.77;;;17.40;99.90;;;;;;5026632;28;20226;-85
2023/09/05 06:50:03;;;;;;;10.03;6.07;;;17.50;99.90;;;;;;4992453;28;20586;-84
2023/09/05 06:52:28;;;;;;;8.93;5.13;;;18.20;99.90;;;;;;5026312;28;20182;-84
2023/09/05 06:54:54;;;;;;;8.40;6.50;;;19.60;99.90;;;;;;5007448;28;20254;-85
2023/09/05 06:57:20;;;;;;;9.27;5.43;;;21.10;99.90;;;;;;5009790;28;20272;-84
2023/09/05 06:59:46;;;;;;;8.00;5.37;;;22.70;99.90;;;;;;4993843;28;20233;-86
2023/09/05 07:02:11;;;;;;;6.73;4.77;;;23.50;99.90;;;;;;5009785;28;20211;-85
2023/09/05 07:04:37;;;;;;;6.97;4.57;;;23.50;99.90;;;;;;5009869;28;20206;-86
2023/09/05 07:07:04;;;;;;;8.10;5.13;;;22.60;99.90;;;;;;5010254;28;20289;-84
2023/09/05 07:09:34;;;;;;;7.87;4.93;;;21.90;99.90;;;;;;5026880;28;20310;-85
2023/09/05 07:12:03;;;;;;;5.55;4.00;;;21.90;99.90;;;;;;5010672;28;20222;-84
2023/09/05 07:14:30;;;;;;;6.57;4.88;;;21.90;99.90;;;;;;5026886;28;20217;-84
2023/09/05 07:16:55;;;;;;;5.15;4.15;;;22.30;99.90;;;;;;4994259;28;20685;-84
2023/09/05 07:19:21;;;;;;;7.38;5.20;;;22.60;99.90;;;;;;4994674;28;20225;-84
2023/09/05 07:21:47;;;;;;;7.68;4.85;;;22.70;99.90;;;;;;5008991;28;20198;-84
2023/09/05 07:24:14;;;;;;;6.53;4.78;;;22.50;99.90;;;;;;5009884;28;20229;-84
2023/09/05 07:26:41;;;;;;;8.48;4.82;;;22.90;99.90;;;;;;5025931;28;20207;-84
2023/09/05 07:29:11;;;;;;;6.60;4.68;;;23.30;99.90;;;;;;5026619;28;20215;-84
2023/09/05 07:31:41;;;;;;;6.15;5.10;;;24.00;99.90;;;;;;5025834;28;20179;-84
2023/09/05 07:34:07;;;;;;;5.97;4.45;;;24.40;99.90;;;;;;5011239;28;20265;-84
2023/09/05 07:36:34;;;;;;;7.47;4.82;;;24.50;99.90;;;;;;5010118;28;20651;-85
2023/09/05 07:39:02;;;;;;;4.40;4.00;;;25.50;99.90;;;;;;5025772;28;21236;-84
2023/09/05 07:41:30;;;;;;;6.70;4.28;;;26.30;99.90;;;;;;5025850;28;20214;-83
2023/09/05 07:43:56;;;;;;;7.93;4.38;;;26.40;99.90;;;;;;5009944;28;20698;-85
2023/09/05 07:46:22;;;;;;;5.80;4.28;;;25.60;99.90;;;;;;5009478;28;20183;-84
2023/09/05 07:48:48;;;;;;;5.50;4.40;;;24.80;99.90;;;;;;5009634;28;20306;-84
2023/09/05 07:51:14;;;;;;;5.82;4.63;;;24.00;99.90;;;;;;4993598;28;20306;-85
2023/09/05 07:53:48;;;;;;;6.20;4.72;;;24.60;99.90;;;;;;5009069;28;20272;-86
2023/09/05 07:56:14;;;;;;;6.00;4.00;;;24.80;99.90;;;;;;5025766;28;20834;-84
2023/09/05 07:58:41;;;;;;;5.32;4.47;;;25.00;99.90;;;;;;5009627;28;20431;-83
2023/09/05 08:01:09;;;;;;;6.35;5.30;;;24.90;99.90;;;;;;5010488;28;20183;-81
2023/09/05 08:03:38;;;;;;;6.00;4.45;;;26.40;99.90;;;;;;5025886;28;20218;-83
2023/09/05 08:06:04;;;;;;;5.68;3.95;;;27.90;99.90;;;;;;5008745;28;20224;-84
2023/09/05 08:08:33;;;;;;;5.43;3.70;;;28.90;99.90;;;;;;5026160;28;20222;-81
2023/09/05 08:10:59;;;;;;;4.97;3.45;;;28.40;99.90;;;;;;5009089;28;20230;-82
2023/09/05 08:13:25;;;;;;;5.35;4.05;;;27.30;99.90;;;;;;5009767;28;20198;-83
2023/09/05 08:15:50;;;;;;;6.38;3.90;;;26.40;99.90;;;;;;5008747;28;20278;-81
2023/09/05 08:18:17;;;;;;;6.68;4.35;;;27.10;99.90;;;;;;5008843;28;20221;-83
2023/09/05 08:20:43;;;;;;;5.72;4.22;;;27.80;99.90;;;;;;5024830;28;20259;-83
2023/09/05 08:23:12;;;;;;;5.30;4.43;;;28.90;99.90;;;;;;5025341;28;20210;-81
2023/09/05 08:25:38;;;;;;;6.60;3.80;;;29.70;99.90;;;;;;5008710;28;20274;-82
2023/09/05 08:28:05;;;;;;;5.07;3.90;;;30.20;99.90;;;;;;5025159;28;20234;-81
2023/09/05 08:30:31;;;;;;;5.35;4.28;;;30.40;99.90;;;;;;5025027;28;20684;-82
2023/09/05 08:33:21;;;;;;;5.03;4.53;;;30.60;99.90;;;;;;5006896;28;20621;-83
2023/09/05 08:36:41;;;;;;;;;;;;;;;;;;;;;
2023/09/05 08:39:38;;;;;;;6.38;4.75;;;31.70;99.90;;;;;;4998659;28;20217;-83
2023/09/05 08:42:16;;;;;;;5.03;4.53;;;31.20;99.90;;;;;;5007131;28;20303;-84
2023/09/05 08:44:43;;;;;;;7.05;4.20;;;31.30;99.90;;;;;;4992170;28;20232;-82
2023/09/05 08:47:09;;;;;;;5.25;4.32;;;31.10;99.90;;;;;;5024616;28;20222;-83
2023/09/05 08:49:35;;;;;;;6.75;3.78;;;31.00;99.90;;;;;;5024770;28;20861;-83
2023/09/05 08:52:03;;;;;;;6.22;4.35;;;31.20;99.90;;;;;;5026483;28;20185;-83
2023/09/05 08:54:30;;;;;;;6.78;3.90;;;31.30;99.90;;;;;;5008918;28;20238;-83
2023/09/05 08:57:00;;;;;;;5.03;3.45;;;31.80;99.90;;;;;;5008403;28;20211;-83
2023/09/05 08:59:26;;;;;;;4.80;3.83;;;31.40;99.90;;;;;;5008102;28;20214;-83
2023/09/05 09:01:52;;;;;;;5.82;3.85;;;30.30;99.90;;;;;;5024101;28;20709;-83
2023/09/05 09:04:20;;;;;;;4.03;3.50;;;30.50;99.90;;;;;;4993068;28;20187;-83
2023/09/05 09:06:56;;;;;;;4.50;3.35;;;30.40;99.90;;;;;;5009338;28;20214;-83
2023/09/05 09:09:34;;;;;;;4.05;3.65;;;29.50;99.90;;;;;;5024372;28;20265;-83
2023/09/05 09:12:00;;;;;;;4.80;4.00;;;29.30;99.90;;;;;;5024072;28;20637;-82
2023/09/05 09:14:26;;;;;;;5.60;3.63;;;29.50;99.90;;;;;;5008679;28;20257;-84
2023/09/05 09:16:53;;;;;;;5.43;3.45;;;29.50;99.90;;;;;;4991896;28;20250;-82
2023/09/05 09:19:19;;;;;;;4.57;3.53;;;29.10;99.90;;;;;;5012053;28;20711;-84
2023/09/05 09:21:47;;;;;;;5.07;3.13;;;29.60;99.90;;;;;;5012588;28;20305;-83
2023/09/05 09:24:16;;;;;;;5.10;3.17;;;30.70;99.90;;;;;;5012019;28;20554;-84
2023/09/05 09:26:42;;;;;;;3.70;3.40;;;30.30;99.90;;;;;;5011784;28;20811;-85
2023/09/05 09:29:09;;;;;;;8.02;3.22;;;30.20;99.90;;;;;;5011177;28;20210;-82
2023/09/05 09:31:37;;;;;;;4.95;3.67;;;29.40;99.90;;;;;;5011755;28;20182;-82
2023/09/05 09:34:04;;;;;;;5.03;3.72;;;29.10;99.90;;;;;;5013146;28;20469;-81
2023/09/05 09:36:34;;;;;;;5.55;3.72;;;29.80;99.90;;;;;;5027748;28;20206;-82
2023/09/05 09:39:22;;;;;;;5.63;3.55;;;29.20;99.90;;;;;;5027517;28;20268;-81
2023/09/05 09:41:49;;;;;;;4.20;3.03;;;29.40;99.90;;;;;;5011219;28;20222;-83
2023/09/05 09:44:32;;;;;;;4.95;3.83;;;28.60;99.90;;;;;;4995500;28;20206;-83
2023/09/05 09:46:59;;;;;;;4.25;3.20;;;28.70;99.90;;;;;;5029438;28;20218;-82
2023/09/05 09:49:27;;;;;;;4.85;3.55;;;28.80;99.90;;;;;;5011649;28;20211;-81
2023/09/05 09:51:57;;;;;;;3.30;2.95;;;29.10;99.90;;;;;;5011521;28;20313;-82
2023/09/05 09:54:31;;;;;;;5.38;3.05;;;28.70;99.90;;;;;;5027637;28;20234;-82
2023/09/05 09:57:06;;;;;;;4.78;3.63;;;28.60;99.90;;;;;;5027487;28;20210;-83
2023/09/05 09:59:37;;;;;;;6.88;3.40;;;28.80;99.90;;;;;;5043759;28;20789;-82
2023/09/05 10:02:09;;;;;;;6.25;2.97;;;29.00;99.90;;;;;;5027734;28;20525;-81
2023/09/05 10:04:36;;;;;;;3.38;2.65;;;28.50;99.90;;;;;;5027841;28;20166;-81
2023/09/05 10:07:06;;;;;;;4.15;2.88;;;28.40;99.90;;;;;;5027594;28;20211;-82
2023/09/05 10:09:35;;;;;;;7.35;3.00;;;28.10;99.90;;;;;;5026919;28;20640;-81
2023/09/05 10:12:01;;;;;;;6.57;2.67;;;28.30;99.90;;;;;;5043917;28;20701;-85
2023/09/05 10:14:30;;;;;;;3.35;3.03;;;28.30;99.90;;;;;;5009985;28;20211;-82
2023/09/05 10:16:57;;;;;;;3.83;3.33;;;28.50;99.90;;;;;;5027255;28;20683;-83
2023/09/05 10:19:25;;;;;;;2.38;2.08;;;28.90;99.90;;;;;;5011397;28;20631;-82
2023/09/05 10:21:55;;;;;;;2.65;2.45;;;29.10;99.90;;;;;;5010512;28;20223;-83
2023/09/05 10:24:24;;;;;;;2.70;2.50;;;28.70;99.90;;;;;;5026646;28;20715;-82
2023/09/05 10:26:50;;;;;;;3.63;2.40;;;28.70;99.90;;;;;;5026451;28;20237;-82
2023/09/05 10:29:44;;;;;;;3.47;2.92;;;28.80;99.90;;;;;;5008558;28;20202;-81
2023/09/05 10:32:14;;;;;;;2.85;2.35;;;28.40;99.90;;;;;;5017960;28;20210;-83
2023/09/05 10:34:48;;;;;;;3.75;2.13;;;28.20;99.90;;;;;;5009061;28;20191;-82
2023/09/05 10:37:18;;;;;;;3.53;2.50;;;28.10;99.90;;;;;;5042872;28;20196;-82
2023/09/05 10:39:45;;;;;;;2.47;2.28;;;28.10;99.90;;;;;;5009888;28;20241;-83
2023/09/05 10:42:15;;;;;;;2.90;1.95;;;28.50;99.90;;;;;;5042633;28;20227;-82
2023/09/05 10:44:47;;;;;;;6.95;2.00;;;28.40;99.90;;;;;;5008521;28;20329;-82
2023/09/05 10:47:31;;;;;;;2.60;2.10;;;28.60;99.90;;;;;;5009973;28;20674;-82
2023/09/05 10:50:04;;;;;;;2.38;1.83;;;29.00;99.90;;;;;;5027621;28;20292;-82
2023/09/05 10:52:30;;;;;;;2.38;1.95;;;29.20;99.90;;;;;;5027929;28;20183;-83
2023/09/05 10:54:58;;;;;;;2.15;1.60;;;28.80;99.90;;;;;;5025753;28;20520;-83
2023/09/05 10:57:37;;;;;;;3.67;2.17;;;28.30;99.90;;;;;;5010213;28;20222;-83
2023/09/05 11:00:16;;;;;;;8.50;3.75;;;28.30;99.90;;;;;;5026013;28;20658;-83
2023/09/05 11:02:43;;;;;;;2.60;2.17;;;28.80;99.90;;;;;;5026629;28;20238;-82
2023/09/05 11:05:12;;;;;;;3.83;2.17;;;28.70;99.90;;;;;;5042406;28;20218;-82
2023/09/05 11:07:42;;;;;;;3.95;1.77;;;28.90;99.90;;;;;;5027340;28;20670;-82
2023/09/05 11:10:11;;;;;;;2.92;1.98;;;28.60;99.90;;;;;;5026462;28;20292;-84
2023/09/05 11:12:38;;;;;;;4.65;2.33;;;28.20;99.90;;;;;;5041686;28;20218;-83
2023/09/05 11:15:05;;;;;;;1.77;1.63;;;28.30;99.90;;;;;;5009606;28;20214;-83
2023/09/05 11:17:31;;;;;;;3.55;2.60;;;27.90;99.90;;;;;;5009295;28;20215;-83
2023/09/05 11:19:57;;;;;;;4.63;1.52;;;27.70;99.90;;;;;;5009930;28;20217;-83
2023/09/05 11:22:25;;;;;;;2.88;1.80;;;27.70;99.90;;;;;;4993710;28;20244;-84
2023/09/05 11:24:52;;;;;;;5.40;2.28;;;27.80;99.90;;;;;;5026027;28;20210;-84
2023/09/05 11:27:21;;;;;;;3.40;2.13;;;27.70;99.90;;;;;;5008457;28;20303;-82
2023/09/05 11:29:47;;;;;;;2.38;1.60;;;27.80;99.90;;;;;;5025462;28;20281;-83
2023/09/05 11:32:15;;;;;;;1.67;1.58;;;27.70;99.90;;;;;;5009388;28;20296;-84
2023/09/05 11:34:46;;;;;;;2.65;1.73;;;27.50;99.90;;;;;;5009660;28;20182;-82
2023/09/05 11:37:18;;;;;;;2.40;1.98;;;27.90;99.90;;;;;;5026475;28;20193;-83
2023/09/05 11:39:44;;;;;;;2.05;1.75;;;27.80;99.90;;;;;;5026832;28;20288;-82
2023/09/05 11:42:18;;;;;;;2.88;1.55;;;27.80;99.90;;;;;;5009596;28;20214;-82
2023/09/05 11:44:44;;;;;;;1.90;1.33;;;27.80;99.90;;;;;;5025882;28;20308;-82
2023/09/05 11:47:12;;;;;;;1.85;1.50;;;28.20;99.90;;;;;;5008472;28;20377;-82
2023/09/05 11:49:38;;;;;;;1.98;1.40;;;28.00;99.90;;;;;;4992727;28;20623;-83
2023/09/05 11:52:08;;;;;;;2.30;1.90;;;27.90;99.90;;;;;;5009338;28;20174;-82
2023/09/05 11:54:34;;;;;;;1.60;1.50;;;27.70;99.90;;;;;;5006586;28;21126;-81
2023/09/05 11:57:02;;;;;;;2.10;1.77;;;28.00;99.90;;;;;;4991609;28;20297;-82
2023/09/05 11:59:28;;;;;;;1.70;1.55;;;27.80;99.90;;;;;;5007343;28;20207;-82
2023/09/05 12:01:55;;;;;;;2.20;1.40;;;27.60;99.90;;;;;;5023978;28;20293;-81
2023/09/05 12:04:22;;;;;;;3.70;1.88;;;27.60;99.90;;;;;;5009382;28;20184;-82
2023/09/05 12:06:52;;;;;;;2.65;1.63;;;27.70;99.90;;;;;;5009856;28;20218;-82
2023/09/05 12:09:20;;;;;;;2.25;1.90;;;27.60;99.90;;;;;;5024390;28;20290;-82
2023/09/05 12:11:48;;;;;;;5.18;1.88;;;27.60;99.90;;;;;;5008346;28;20551;-82
2023/09/05 12:14:16;;;;;;;2.08;1.80;;;27.70;99.90;;;;;;5025232;28;20374;-82
2023/09/05 12:16:47;;;;;;;2.05;1.70;;;27.60;99.90;;;;;;5008428;28;20183;-81
2023/09/05 12:19:13;;;;;;;2.45;1.63;;;27.60;99.90;;;;;;5024990;28;20556;-81
2023/09/05 12:21:44;;;;;;;2.70;1.85;;;27.40;99.90;;;;;;5022900;28;20292;-81
2023/09/05 12:24:20;;;;;;;2.40;2.15;;;27.40;99.90;;;;;;5023385;28;20763;-82
2023/09/05 12:26:49;;;;;;;2.50;1.70;;;27.50;99.90;;;;;;5023464;28;20288;-82
2023/09/05 12:29:21;;;;;;;3.83;1.85;;;27.50;99.90;;;;;;5007960;28;20210;-82
2023/09/05 12:31:48;;;;;;;3.30;1.48;;;27.60;99.90;;;;;;5007811;28;20194;-82
2023/09/05 12:34:14;;;;;;;1.77;1.52;;;27.70;99.90;;;;;;5007989;28;20193;-83
2023/09/05 12:36:40;;;;;;;1.60;1.50;;;27.70;99.90;;;;;;5007362;28;20598;-85
2023/09/05 12:39:06;;;;;;;2.05;1.75;;;27.70;99.90;;;;;;5008085;28;21002;-83
2023/09/05 12:41:32;;;;;;;1.85;1.65;;;27.80;99.90;;;;;;4990546;28;20261;-82
2023/09/05 12:43:58;;;;;;;2.65;1.90;;;27.80;99.90;;;;;;5007441;28;20284;-82
2023/09/05 12:46:25;;;;;;;1.80;1.70;;;27.80;99.90;;;;;;5007671;28;20191;-81
2023/09/05 12:48:54;;;;;;;2.45;1.80;;;27.80;99.90;;;;;;5007134;28;20210;-81